sensor_id;sensor_type;location;lat;lon;timestamp;pressure;altitude;pressure_sealevel;temperature;humidity
62948;BME280;51940;52.126;-0.994;2022-11-18T00:00:26;98030.45;;;7.22;100.00
62948;BME280;51940;52.126;-0.994;2022-11-18T00:02:52;98032.66;;;7.24;100.00
62948;BME280;51940;52.126;-0.994;2022-11-18T00:05:17;98039.14;;;7.26;100.00
62948;BME280;51940;52.126;-0.994;2022-11-18T00:07:42;98036.20;;;7.28;100.00
62948;BME280;51940;52.126;-0.994;2022-11-18T00:10:08;98040.37;;;7.30;100.00
62948;BME280;51940;52.126;-0.994;2022-11-18T00:12:33;98039.96;;;7.30;100.00
62948;BME280;51940;52.126;-0.994;2022-11-18T00:15:17;98038.71;;;7.31;100.00
62948;BME280;51940;52.126;-0.994;2022-11-18T00:17:43;98046.61;;;7.32;100.00
62948;BME280;51940;52.126;-0.994;2022-11-18T00:20:08;98049.34;;;7.35;100.00
62948;BME280;51940;52.126;-0.994;2022-11-18T00:22:34;98051.45;;;7.36;100.00
62948;BME280;51940;52.126;-0.994;2022-11-18T00:25:00;98058.71;;;7.35;100.00
62948;BME280;51940;52.126;-0.994;2022-11-18T00:27:28;98059.09;;;7.34;100.00
62948;BME280;51940;52.126;-0.994;2022-11-18T00:29:55;98056.98;;;7.34;100.00
62948;BME280;51940;52.126;-0.994;2022-11-18T00:32:20;98063.11;;;7.32;100.00
62948;BME280;51940;52.126;-0.994;2022-11-18T00:34:46;98067.81;;;7.30;100.00
62948;BME280;51940;52.126;-0.994;2022-11-18T00:51:27;98089.15;;;7.37;100.00
62948;BME280;51940;52.126;-0.994;2022-11-18T00:53:52;98091.11;;;7.37;100.00
62948;BME280;51940;52.126;-0.994;2022-11-18T00:56:19;98092.44;;;7.39;100.00
62948;BME280;51940;52.126;-0.994;2022-11-18T00:58:44;98097.39;;;7.39;100.00
62948;BME280;51940;52.126;-0.994;2022-11-18T01:01:09;98100.11;;;7.41;100.00
62948;BME280;51940;52.126;-0.994;2022-11-18T01:03:34;98102.45;;;7.44;100.00
62948;BME280;51940;52.126;-0.994;2022-11-18T01:06:00;98100.75;;;7.47;100.00
62948;BME280;51940;52.126;-0.994;2022-11-18T01:08:25;98106.11;;;7.49;100.00
62948;BME280;51940;52.126;-0.994;2022-11-18T01:10:51;98105.26;;;7.52;100.00
62948;BME280;51940;52.126;-0.994;2022-11-18T01:13:17;98104.59;;;7.55;100.00
62948;BME280;51940;52.126;-0.994;2022-11-18T01:15:51;98112.16;;;7.56;100.00
62948;BME280;51940;52.126;-0.994;2022-11-18T01:18:20;98109.46;;;7.56;100.00
62948;BME280;51940;52.126;-0.994;2022-11-18T01:20:46;98114.80;;;7.57;100.00
62948;BME280;51940;52.126;-0.994;2022-11-18T01:23:13;98117.59;;;7.57;100.00
62948;BME280;51940;52.126;-0.994;2022-11-18T01:25:40;98122.58;;;7.57;100.00
62948;BME280;51940;52.126;-0.994;2022-11-18T01:28:06;98124.16;;;7.57;100.00
62948;BME280;51940;52.126;-0.994;2022-11-18T01:30:33;98123.83;;;7.57;100.00
62948;BME280;51940;52.126;-0.994;2022-11-18T01:32:59;98130.77;;;7.56;100.00
62948;BME280;51940;52.126;-0.994;2022-11-18T01:35:25;98139.87;;;7.55;100.00
62948;BME280;51940;52.126;-0.994;2022-11-18T01:37:50;98139.36;;;7.55;100.00
62948;BME280;51940;52.126;-0.994;2022-11-18T01:40:16;98136.19;;;7.54;100.00
62948;BME280;51940;52.126;-0.994;2022-11-18T01:42:41;98143.13;;;7.54;100.00
62948;BME280;51940;52.126;-0.994;2022-11-18T01:47:48;98146.09;;;7.55;100.00
62948;BME280;51940;52.126;-0.994;2022-11-18T01:50:17;98148.38;;;7.55;100.00
62948;BME280;51940;52.126;-0.994;2022-11-18T01:52:44;98150.50;;;7.56;100.00
62948;BME280;51940;52.126;-0.994;2022-11-18T01:55:17;98152.59;;;7.56;100.00
62948;BME280;51940;52.126;-0.994;2022-11-18T01:57:45;98154.33;;;7.57;100.00
62948;BME280;51940;52.126;-0.994;2022-11-18T02:00:12;98155.71;;;7.57;100.00
62948;BME280;51940;52.126;-0.994;2022-11-18T02:02:38;98155.90;;;7.58;100.00
62948;BME280;51940;52.126;-0.994;2022-11-18T02:05:05;98161.23;;;7.57;100.00
62948;BME280;51940;52.126;-0.994;2022-11-18T02:07:34;98165.69;;;7.57;100.00
62948;BME280;51940;52.126;-0.994;2022-11-18T02:10:03;98168.54;;;7.56;100.00
62948;BME280;51940;52.126;-0.994;2022-11-18T02:12:29;98168.95;;;7.55;100.00
62948;BME280;51940;52.126;-0.994;2022-11-18T02:14:55;98172.42;;;7.53;100.00
62948;BME280;51940;52.126;-0.994;2022-11-18T02:31:26;98188.49;;;7.44;100.00
62948;BME280;51940;52.126;-0.994;2022-11-18T02:36:39;98194.91;;;7.39;100.00
62948;BME280;51940;52.126;-0.994;2022-11-18T02:39:12;98198.16;;;7.38;100.00
62948;BME280;51940;52.126;-0.994;2022-11-18T02:41:41;98203.90;;;7.36;100.00
62948;BME280;51940;52.126;-0.994;2022-11-18T02:44:12;98206.81;;;7.34;100.00
62948;BME280;51940;52.126;-0.994;2022-11-18T02:46:40;98212.77;;;7.32;100.00
62948;BME280;51940;52.126;-0.994;2022-11-18T02:49:10;98212.52;;;7.30;100.00
62948;BME280;51940;52.126;-0.994;2022-11-18T02:51:36;98220.98;;;7.31;100.00
62948;BME280;51940;52.126;-0.994;2022-11-18T02:54:06;98224.71;;;7.31;100.00
62948;BME280;51940;52.126;-0.994;2022-11-18T02:56:34;98228.45;;;7.30;100.00
62948;BME280;51940;52.126;-0.994;2022-11-18T02:59:01;98236.99;;;7.30;100.00
62948;BME280;51940;52.126;-0.994;2022-11-18T03:01:28;98241.88;;;7.31;100.00
62948;BME280;51940;52.126;-0.994;2022-11-18T03:03:55;98241.13;;;7.32;100.00
62948;BME280;51940;52.126;-0.994;2022-11-18T03:06:41;98243.42;;;7.32;100.00
62948;BME280;51940;52.126;-0.994;2022-11-18T03:09:16;98240.36;;;7.33;100.00
62948;BME280;51940;52.126;-0.994;2022-11-18T03:11:49;98244.04;;;7.35;100.00
62948;BME280;51940;52.126;-0.994;2022-11-18T03:14:41;98239.77;;;7.35;100.00
62948;BME280;51940;52.126;-0.994;2022-11-18T03:17:14;98243.74;;;7.38;100.00
62948;BME280;51940;52.126;-0.994;2022-11-18T03:22:35;98250.59;;;7.43;100.00
62948;BME280;51940;52.126;-0.994;2022-11-18T03:25:09;98253.05;;;7.43;100.00
62948;BME280;51940;52.126;-0.994;2022-11-18T03:27:47;98258.03;;;7.43;100.00
62948;BME280;51940;52.126;-0.994;2022-11-18T03:30:18;98260.02;;;7.42;100.00
62948;BME280;51940;52.126;-0.994;2022-11-18T03:32:51;98261.06;;;7.39;100.00
62948;BME280;51940;52.126;-0.994;2022-11-18T03:35:21;98268.91;;;7.38;100.00
62948;BME280;51940;52.126;-0.994;2022-11-18T03:37:51;98275.13;;;7.38;100.00
62948;BME280;51940;52.126;-0.994;2022-11-18T03:40:25;98282.40;;;7.38;100.00
62948;BME280;51940;52.126;-0.994;2022-11-18T03:43:21;98285.40;;;7.38;100.00
62948;BME280;51940;52.126;-0.994;2022-11-18T03:45:51;98294.43;;;7.38;100.00
62948;BME280;51940;52.126;-0.994;2022-11-18T03:48:22;98294.81;;;7.38;100.00
62948;BME280;51940;52.126;-0.994;2022-11-18T03:50:55;98297.52;;;7.37;100.00
62948;BME280;51940;52.126;-0.994;2022-11-18T03:53:25;98291.14;;;7.37;100.00
62948;BME280;51940;52.126;-0.994;2022-11-18T03:56:08;98292.50;;;7.38;100.00
62948;BME280;51940;52.126;-0.994;2022-11-18T03:58:47;98295.89;;;7.38;100.00
62948;BME280;51940;52.126;-0.994;2022-11-18T04:01:20;98302.02;;;7.35;100.00
62948;BME280;51940;52.126;-0.994;2022-11-18T04:03:48;98307.05;;;7.33;100.00
62948;BME280;51940;52.126;-0.994;2022-11-18T04:06:38;98310.45;;;7.33;100.00
62948;BME280;51940;52.126;-0.994;2022-11-18T04:09:12;98316.80;;;7.33;100.00
62948;BME280;51940;52.126;-0.994;2022-11-18T04:11:46;98326.66;;;7.35;100.00
62948;BME280;51940;52.126;-0.994;2022-11-18T04:14:47;98328.74;;;7.37;100.00
62948;BME280;51940;52.126;-0.994;2022-11-18T04:17:19;98334.18;;;7.38;100.00
62948;BME280;51940;52.126;-0.994;2022-11-18T04:19:45;98333.27;;;7.38;100.00
62948;BME280;51940;52.126;-0.994;2022-11-18T04:22:11;98340.38;;;7.38;100.00
62948;BME280;51940;52.126;-0.994;2022-11-18T04:24:37;98341.14;;;7.37;100.00
62948;BME280;51940;52.126;-0.994;2022-11-18T04:27:03;98340.98;;;7.37;100.00
62948;BME280;51940;52.126;-0.994;2022-11-18T04:29:30;98345.45;;;7.36;100.00
62948;BME280;51940;52.126;-0.994;2022-11-18T04:31:56;98347.10;;;7.34;100.00
62948;BME280;51940;52.126;-0.994;2022-11-18T04:34:22;98351.58;;;7.33;100.00
62948;BME280;51940;52.126;-0.994;2022-11-18T04:36:47;98354.22;;;7.33;100.00
62948;BME280;51940;52.126;-0.994;2022-11-18T04:39:12;98359.31;;;7.34;100.00
62948;BME280;51940;52.126;-0.994;2022-11-18T04:41:38;98361.27;;;7.34;100.00
62948;BME280;51940;52.126;-0.994;2022-11-18T04:44:31;98366.11;;;7.33;100.00
62948;BME280;51940;52.126;-0.994;2022-11-18T04:46:59;98372.54;;;7.32;100.00
62948;BME280;51940;52.126;-0.994;2022-11-18T04:49:26;98370.27;;;7.31;100.00
62948;BME280;51940;52.126;-0.994;2022-11-18T04:51:52;98375.07;;;7.31;100.00
62948;BME280;51940;52.126;-0.994;2022-11-18T04:54:18;98375.98;;;7.30;100.00
62948;BME280;51940;52.126;-0.994;2022-11-18T04:56:44;98383.39;;;7.31;100.00
62948;BME280;51940;52.126;-0.994;2022-11-18T04:59:11;98387.79;;;7.32;100.00
62948;BME280;51940;52.126;-0.994;2022-11-18T05:01:36;98393.30;;;7.32;100.00
62948;BME280;51940;52.126;-0.994;2022-11-18T05:04:03;98393.89;;;7.30;100.00
62948;BME280;51940;52.126;-0.994;2022-11-18T05:06:30;98404.29;;;7.28;100.00
62948;BME280;51940;52.126;-0.994;2022-11-18T05:08:56;98405.09;;;7.25;100.00
62948;BME280;51940;52.126;-0.994;2022-11-18T05:11:22;98413.30;;;7.24;100.00
62948;BME280;51940;52.126;-0.994;2022-11-18T05:14:06;98416.18;;;7.23;100.00
62948;BME280;51940;52.126;-0.994;2022-11-18T05:16:32;98420.09;;;7.23;100.00
62948;BME280;51940;52.126;-0.994;2022-11-18T05:18:57;98423.29;;;7.23;100.00
62948;BME280;51940;52.126;-0.994;2022-11-18T05:21:22;98426.45;;;7.24;100.00
62948;BME280;51940;52.126;-0.994;2022-11-18T05:23:48;98431.75;;;7.24;100.00
62948;BME280;51940;52.126;-0.994;2022-11-18T05:26:13;98432.41;;;7.25;100.00
62948;BME280;51940;52.126;-0.994;2022-11-18T05:28:39;98437.30;;;7.27;100.00
62948;BME280;51940;52.126;-0.994;2022-11-18T05:31:12;98439.43;;;7.27;100.00
62948;BME280;51940;52.126;-0.994;2022-11-18T05:33:38;98446.54;;;7.27;100.00
62948;BME280;51940;52.126;-0.994;2022-11-18T05:36:10;98450.70;;;7.24;100.00
62948;BME280;51940;52.126;-0.994;2022-11-18T05:38:36;98454.23;;;7.21;100.00
62948;BME280;51940;52.126;-0.994;2022-11-18T05:41:02;98458.61;;;7.18;100.00
62948;BME280;51940;52.126;-0.994;2022-11-18T05:43:28;98460.11;;;7.16;100.00
62948;BME280;51940;52.126;-0.994;2022-11-18T05:45:54;98464.95;;;7.15;100.00
62948;BME280;51940;52.126;-0.994;2022-11-18T05:48:20;98470.96;;;7.15;100.00
62948;BME280;51940;52.126;-0.994;2022-11-18T05:50:50;98477.61;;;7.17;100.00
62948;BME280;51940;52.126;-0.994;2022-11-18T05:53:18;98477.73;;;7.18;100.00
62948;BME280;51940;52.126;-0.994;2022-11-18T05:55:57;98482.62;;;7.20;100.00
62948;BME280;51940;52.126;-0.994;2022-11-18T05:58:25;98482.70;;;7.22;100.00
62948;BME280;51940;52.126;-0.994;2022-11-18T06:00:54;98493.79;;;7.24;100.00
62948;BME280;51940;52.126;-0.994;2022-11-18T06:03:24;98491.61;;;7.26;100.00
62948;BME280;51940;52.126;-0.994;2022-11-18T06:05:55;98496.07;;;7.25;100.00
62948;BME280;51940;52.126;-0.994;2022-11-18T06:08:23;98500.25;;;7.23;100.00
62948;BME280;51940;52.126;-0.994;2022-11-18T06:10:53;98506.98;;;7.19;100.00
62948;BME280;51940;52.126;-0.994;2022-11-18T06:13:26;98510.93;;;7.17;100.00
62948;BME280;51940;52.126;-0.994;2022-11-18T06:15:54;98515.89;;;7.17;100.00
62948;BME280;51940;52.126;-0.994;2022-11-18T06:18:25;98525.13;;;7.17;100.00
62948;BME280;51940;52.126;-0.994;2022-11-18T06:20:55;98532.36;;;7.18;100.00
62948;BME280;51940;52.126;-0.994;2022-11-18T06:23:22;98535.02;;;7.18;100.00
62948;BME280;51940;52.126;-0.994;2022-11-18T06:25:48;98537.30;;;7.19;100.00
62948;BME280;51940;52.126;-0.994;2022-11-18T06:28:15;98539.77;;;7.19;100.00
62948;BME280;51940;52.126;-0.994;2022-11-18T06:30:42;98544.20;;;7.19;100.00
62948;BME280;51940;52.126;-0.994;2022-11-18T06:33:07;98547.22;;;7.19;100.00
62948;BME280;51940;52.126;-0.994;2022-11-18T06:35:33;98555.84;;;7.20;100.00
62948;BME280;51940;52.126;-0.994;2022-11-18T06:37:58;98559.71;;;7.21;100.00
62948;BME280;51940;52.126;-0.994;2022-11-18T06:40:24;98564.13;;;7.22;100.00
62948;BME280;51940;52.126;-0.994;2022-11-18T06:42:49;98566.94;;;7.22;100.00
62948;BME280;51940;52.126;-0.994;2022-11-18T06:45:33;98567.81;;;7.23;100.00
62948;BME280;51940;52.126;-0.994;2022-11-18T06:47:59;98579.10;;;7.24;100.00
62948;BME280;51940;52.126;-0.994;2022-11-18T06:50:25;98580.83;;;7.25;100.00
62948;BME280;51940;52.126;-0.994;2022-11-18T06:52:52;98581.88;;;7.25;100.00
62948;BME280;51940;52.126;-0.994;2022-11-18T06:55:18;98587.53;;;7.26;100.00
62948;BME280;51940;52.126;-0.994;2022-11-18T06:57:43;98591.39;;;7.27;100.00
62948;BME280;51940;52.126;-0.994;2022-11-18T07:00:09;98597.52;;;7.29;100.00
62948;BME280;51940;52.126;-0.994;2022-11-18T07:02:35;98605.77;;;7.31;100.00
62948;BME280;51940;52.126;-0.994;2022-11-18T07:05:01;98611.73;;;7.32;100.00
62948;BME280;51940;52.126;-0.994;2022-11-18T07:07:27;98616.34;;;7.32;100.00
62948;BME280;51940;52.126;-0.994;2022-11-18T07:09:52;98618.98;;;7.33;100.00
62948;BME280;51940;52.126;-0.994;2022-11-18T07:12:18;98628.36;;;7.33;100.00
62948;BME280;51940;52.126;-0.994;2022-11-18T07:14:43;98634.55;;;7.34;100.00
62948;BME280;51940;52.126;-0.994;2022-11-18T07:17:09;98640.39;;;7.35;100.00
62948;BME280;51940;52.126;-0.994;2022-11-18T07:19:34;98648.85;;;7.37;100.00
62948;BME280;51940;52.126;-0.994;2022-11-18T07:21:59;98651.31;;;7.37;100.00
62948;BME280;51940;52.126;-0.994;2022-11-18T07:24:25;98655.00;;;7.38;100.00
62948;BME280;51940;52.126;-0.994;2022-11-18T07:26:52;98661.52;;;7.39;100.00
62948;BME280;51940;52.126;-0.994;2022-11-18T07:29:17;98665.02;;;7.40;100.00
62948;BME280;51940;52.126;-0.994;2022-11-18T07:31:42;98668.71;;;7.41;100.00
62948;BME280;51940;52.126;-0.994;2022-11-18T07:34:08;98677.19;;;7.42;100.00
62948;BME280;51940;52.126;-0.994;2022-11-18T07:36:33;98683.19;;;7.42;100.00
62948;BME280;51940;52.126;-0.994;2022-11-18T07:39:00;98685.67;;;7.42;100.00
62948;BME280;51940;52.126;-0.994;2022-11-18T07:41:28;98688.34;;;7.42;100.00
62948;BME280;51940;52.126;-0.994;2022-11-18T07:43:55;98695.27;;;7.42;100.00
62948;BME280;51940;52.126;-0.994;2022-11-18T07:46:31;98701.46;;;7.42;100.00
62948;BME280;51940;52.126;-0.994;2022-11-18T07:48:59;98709.13;;;7.41;100.00
62948;BME280;51940;52.126;-0.994;2022-11-18T07:51:31;98716.65;;;7.39;100.00
62948;BME280;51940;52.126;-0.994;2022-11-18T07:54:00;98715.10;;;7.38;100.00
62948;BME280;51940;52.126;-0.994;2022-11-18T07:56:26;98722.58;;;7.38;100.00
62948;BME280;51940;52.126;-0.994;2022-11-18T07:58:53;98731.11;;;7.37;100.00
62948;BME280;51940;52.126;-0.994;2022-11-18T08:01:21;98737.88;;;7.37;100.00
62948;BME280;51940;52.126;-0.994;2022-11-18T08:03:47;98742.67;;;7.36;100.00
62948;BME280;51940;52.126;-0.994;2022-11-18T08:06:14;98750.47;;;7.36;100.00
62948;BME280;51940;52.126;-0.994;2022-11-18T08:08:41;98754.19;;;7.37;100.00
62948;BME280;51940;52.126;-0.994;2022-11-18T08:11:09;98754.75;;;7.35;100.00
62948;BME280;51940;52.126;-0.994;2022-11-18T08:13:36;98757.43;;;7.34;100.00
62948;BME280;51940;52.126;-0.994;2022-11-18T08:16:03;98765.41;;;7.34;100.00
62948;BME280;51940;52.126;-0.994;2022-11-18T08:18:30;98768.81;;;7.33;100.00
62948;BME280;51940;52.126;-0.994;2022-11-18T08:21:02;98771.54;;;7.32;100.00
62948;BME280;51940;52.126;-0.994;2022-11-18T08:23:27;98773.38;;;7.30;100.00
62948;BME280;51940;52.126;-0.994;2022-11-18T08:26:04;98777.55;;;7.28;100.00
62948;BME280;51940;52.126;-0.994;2022-11-18T08:28:31;98784.34;;;7.26;100.00
62948;BME280;51940;52.126;-0.994;2022-11-18T08:30:57;98784.55;;;7.26;100.00
62948;BME280;51940;52.126;-0.994;2022-11-18T08:33:22;98794.48;;;7.25;100.00
62948;BME280;51940;52.126;-0.994;2022-11-18T08:35:48;98793.95;;;7.26;100.00
62948;BME280;51940;52.126;-0.994;2022-11-18T08:38:13;98798.20;;;7.25;100.00
62948;BME280;51940;52.126;-0.994;2022-11-18T08:40:42;98803.69;;;7.26;100.00
62948;BME280;51940;52.126;-0.994;2022-11-18T08:43:12;98804.57;;;7.26;100.00
62948;BME280;51940;52.126;-0.994;2022-11-18T08:45:39;98807.22;;;7.27;100.00
62948;BME280;51940;52.126;-0.994;2022-11-18T08:48:05;98808.45;;;7.27;100.00
62948;BME280;51940;52.126;-0.994;2022-11-18T08:50:30;98809.84;;;7.28;100.00
62948;BME280;51940;52.126;-0.994;2022-11-18T08:52:56;98813.66;;;7.30;100.00
62948;BME280;51940;52.126;-0.994;2022-11-18T08:55:21;98817.36;;;7.30;100.00
62948;BME280;51940;52.126;-0.994;2022-11-18T08:57:47;98817.65;;;7.32;100.00
62948;BME280;51940;52.126;-0.994;2022-11-18T09:00:13;98821.33;;;7.33;100.00
62948;BME280;51940;52.126;-0.994;2022-11-18T09:02:38;98829.16;;;7.38;100.00
62948;BME280;51940;52.126;-0.994;2022-11-18T09:05:04;98834.52;;;7.46;100.00
62948;BME280;51940;52.126;-0.994;2022-11-18T09:07:30;98837.35;;;7.51;100.00
62948;BME280;51940;52.126;-0.994;2022-11-18T09:09:55;98839.02;;;7.54;100.00
62948;BME280;51940;52.126;-0.994;2022-11-18T09:12:21;98840.31;;;7.57;100.00
62948;BME280;51940;52.126;-0.994;2022-11-18T09:14:46;98849.43;;;7.60;100.00
62948;BME280;51940;52.126;-0.994;2022-11-18T09:17:12;98850.45;;;7.62;100.00
62948;BME280;51940;52.126;-0.994;2022-11-18T09:19:40;98852.52;;;7.63;100.00
62948;BME280;51940;52.126;-0.994;2022-11-18T09:22:06;98858.02;;;7.63;100.00
62948;BME280;51940;52.126;-0.994;2022-11-18T09:24:33;98861.70;;;7.65;100.00
62948;BME280;51940;52.126;-0.994;2022-11-18T09:27:01;98864.88;;;7.65;100.00
62948;BME280;51940;52.126;-0.994;2022-11-18T09:29:27;98865.80;;;7.64;100.00
62948;BME280;51940;52.126;-0.994;2022-11-18T09:31:53;98870.89;;;7.66;100.00
62948;BME280;51940;52.126;-0.994;2022-11-18T09:34:20;98874.17;;;7.68;100.00
62948;BME280;51940;52.126;-0.994;2022-11-18T09:36:45;98878.83;;;7.72;100.00
62948;BME280;51940;52.126;-0.994;2022-11-18T09:39:11;98882.18;;;7.77;100.00
62948;BME280;51940;52.126;-0.994;2022-11-18T09:47:27;98897.67;;;7.95;100.00
62948;BME280;51940;52.126;-0.994;2022-11-18T09:49:56;98901.88;;;8.01;100.00
62948;BME280;51940;52.126;-0.994;2022-11-18T09:54:51;98907.21;;;8.15;100.00
62948;BME280;51940;52.126;-0.994;2022-11-18T09:57:24;98910.33;;;8.22;100.00
62948;BME280;51940;52.126;-0.994;2022-11-18T09:59:51;98908.80;;;8.29;100.00
62948;BME280;51940;52.126;-0.994;2022-11-18T10:05:18;98920.21;;;8.47;100.00
62948;BME280;51940;52.126;-0.994;2022-11-18T10:10:26;98927.65;;;8.61;100.00
62948;BME280;51940;52.126;-0.994;2022-11-18T10:13:01;98931.30;;;8.67;100.00
62948;BME280;51940;52.126;-0.994;2022-11-18T10:15:59;98939.14;;;8.76;100.00
62948;BME280;51940;52.126;-0.994;2022-11-18T10:18:36;98946.87;;;8.87;100.00
62948;BME280;51940;52.126;-0.994;2022-11-18T10:21:16;98950.84;;;9.03;100.00
62948;BME280;51940;52.126;-0.994;2022-11-18T10:24:06;98956.48;;;9.17;100.00
62948;BME280;51940;52.126;-0.994;2022-11-18T10:26:37;98955.91;;;9.22;100.00
62948;BME280;51940;52.126;-0.994;2022-11-18T10:29:04;98959.63;;;9.23;100.00
62948;BME280;51940;52.126;-0.994;2022-11-18T10:31:44;98964.34;;;9.25;100.00
62948;BME280;51940;52.126;-0.994;2022-11-18T10:34:18;98964.77;;;9.27;100.00
62948;BME280;51940;52.126;-0.994;2022-11-18T10:36:57;98971.63;;;9.29;100.00
62948;BME280;51940;52.126;-0.994;2022-11-18T10:39:23;98973.04;;;9.30;100.00
62948;BME280;51940;52.126;-0.994;2022-11-18T10:41:51;98973.17;;;9.26;100.00
62948;BME280;51940;52.126;-0.994;2022-11-18T10:44:36;98977.73;;;9.24;100.00
62948;BME280;51940;52.126;-0.994;2022-11-18T10:47:22;98981.51;;;9.27;100.00
62948;BME280;51940;52.126;-0.994;2022-11-18T10:49:49;98984.70;;;9.32;100.00
62948;BME280;51940;52.126;-0.994;2022-11-18T10:52:15;98986.55;;;9.38;100.00
62948;BME280;51940;52.126;-0.994;2022-11-18T10:54:41;98991.67;;;9.44;100.00
62948;BME280;51940;52.126;-0.994;2022-11-18T10:57:14;98993.59;;;9.49;100.00
62948;BME280;51940;52.126;-0.994;2022-11-18T11:02:30;99002.39;;;9.64;100.00
62948;BME280;51940;52.126;-0.994;2022-11-18T11:05:00;99001.27;;;9.74;100.00
62948;BME280;51940;52.126;-0.994;2022-11-18T11:07:35;99000.66;;;9.79;100.00
62948;BME280;51940;52.126;-0.994;2022-11-18T11:10:20;98995.33;;;9.83;100.00
62948;BME280;51940;52.126;-0.994;2022-11-18T11:12:55;98993.51;;;9.88;100.00
62948;BME280;51940;52.126;-0.994;2022-11-18T11:15:43;98998.96;;;9.94;100.00
62948;BME280;51940;52.126;-0.994;2022-11-18T11:18:17;98996.55;;;10.00;100.00
62948;BME280;51940;52.126;-0.994;2022-11-18T11:21:06;98998.77;;;10.06;100.00
62948;BME280;51940;52.126;-0.994;2022-11-18T11:23:33;98999.76;;;10.08;100.00
62948;BME280;51940;52.126;-0.994;2022-11-18T11:26:03;99007.13;;;10.10;100.00
62948;BME280;51940;52.126;-0.994;2022-11-18T11:28:44;99009.77;;;10.11;100.00
62948;BME280;51940;52.126;-0.994;2022-11-18T11:33:58;99011.08;;;10.13;100.00
62948;BME280;51940;52.126;-0.994;2022-11-18T11:55:48;99038.80;;;10.19;100.00
62948;BME280;51940;52.126;-0.994;2022-11-18T12:03:50;99050.17;;;10.20;100.00
62948;BME280;51940;52.126;-0.994;2022-11-18T12:06:17;99059.69;;;10.23;100.00
62948;BME280;51940;52.126;-0.994;2022-11-18T12:09:02;99060.16;;;10.25;100.00
62948;BME280;51940;52.126;-0.994;2022-11-18T12:11:50;99068.30;;;10.26;100.00
62948;BME280;51940;52.126;-0.994;2022-11-18T12:14:35;99066.27;;;10.23;100.00
62948;BME280;51940;52.126;-0.994;2022-11-18T12:17:11;99067.15;;;10.23;100.00
62948;BME280;51940;52.126;-0.994;2022-11-18T12:19:41;99069.73;;;10.26;100.00
62948;BME280;51940;52.126;-0.994;2022-11-18T12:22:07;99077.49;;;10.31;100.00
62948;BME280;51940;52.126;-0.994;2022-11-18T12:24:42;99080.52;;;10.36;100.00
62948;BME280;51940;52.126;-0.994;2022-11-18T12:32:35;99090.48;;;10.48;100.00
62948;BME280;51940;52.126;-0.994;2022-11-18T12:40:43;99091.41;;;10.51;100.00
62948;BME280;51940;52.126;-0.994;2022-11-18T12:46:55;99101.20;;;10.64;100.00
62948;BME280;51940;52.126;-0.994;2022-11-18T12:48:55;99106.63;;;10.65;100.00
62948;BME280;51940;52.126;-0.994;2022-11-18T12:53:49;99116.79;;;10.66;100.00
62948;BME280;51940;52.126;-0.994;2022-11-18T12:58:52;99124.45;;;10.62;100.00
62948;BME280;51940;52.126;-0.994;2022-11-18T13:01:21;99125.89;;;10.61;100.00
62948;BME280;51940;52.126;-0.994;2022-11-18T13:03:46;99126.42;;;10.62;100.00
62948;BME280;51940;52.126;-0.994;2022-11-18T13:06:29;99126.39;;;10.62;100.00
62948;BME280;51940;52.126;-0.994;2022-11-18T13:09:01;99127.58;;;10.64;100.00
62948;BME280;51940;52.126;-0.994;2022-11-18T13:11:30;99134.05;;;10.66;100.00
62948;BME280;51940;52.126;-0.994;2022-11-18T13:14:22;99135.92;;;10.68;100.00
62948;BME280;51940;52.126;-0.994;2022-11-18T13:20:29;99140.48;;;10.70;100.00
62948;BME280;51940;52.126;-0.994;2022-11-18T13:26:13;99149.94;;;10.66;100.00
62948;BME280;51940;52.126;-0.994;2022-11-18T13:29:04;99151.42;;;10.64;100.00
62948;BME280;51940;52.126;-0.994;2022-11-18T13:31:41;99156.67;;;10.63;100.00
62948;BME280;51940;52.126;-0.994;2022-11-18T13:34:16;99152.20;;;10.59;100.00
62948;BME280;51940;52.126;-0.994;2022-11-18T13:36:44;99155.90;;;10.53;100.00
62948;BME280;51940;52.126;-0.994;2022-11-18T13:39:23;99156.99;;;10.47;100.00
62948;BME280;51940;52.126;-0.994;2022-11-18T13:42:12;99164.66;;;10.44;100.00
62948;BME280;51940;52.126;-0.994;2022-11-18T13:44:43;99167.17;;;10.43;100.00
62948;BME280;51940;52.126;-0.994;2022-11-18T13:53:07;99176.30;;;10.42;100.00
62948;BME280;51940;52.126;-0.994;2022-11-18T13:55:47;99175.42;;;10.42;100.00
62948;BME280;51940;52.126;-0.994;2022-11-18T14:00:57;99181.86;;;10.37;100.00
62948;BME280;51940;52.126;-0.994;2022-11-18T14:05:53;99182.58;;;10.37;100.00
62948;BME280;51940;52.126;-0.994;2022-11-18T14:08:26;99187.30;;;10.36;100.00
62948;BME280;51940;52.126;-0.994;2022-11-18T14:10:52;99190.56;;;10.34;100.00
62948;BME280;51940;52.126;-0.994;2022-11-18T14:13:27;99195.98;;;10.32;100.00
62948;BME280;51940;52.126;-0.994;2022-11-18T14:15:53;99192.36;;;10.29;100.00
62948;BME280;51940;52.126;-0.994;2022-11-18T14:18:35;99193.56;;;10.27;100.00
62948;BME280;51940;52.126;-0.994;2022-11-18T14:21:03;99192.55;;;10.25;100.00
62948;BME280;51940;52.126;-0.994;2022-11-18T14:23:32;99196.67;;;10.24;100.00
62948;BME280;51940;52.126;-0.994;2022-11-18T14:26:00;99200.43;;;10.24;100.00
62948;BME280;51940;52.126;-0.994;2022-11-18T14:28:31;99203.33;;;10.22;100.00
62948;BME280;51940;52.126;-0.994;2022-11-18T14:31:26;99209.66;;;10.20;100.00
62948;BME280;51940;52.126;-0.994;2022-11-18T14:34:16;99213.28;;;10.18;100.00
62948;BME280;51940;52.126;-0.994;2022-11-18T14:36:46;99214.92;;;10.17;100.00
62948;BME280;51940;52.126;-0.994;2022-11-18T14:39:26;99217.29;;;10.15;100.00
62948;BME280;51940;52.126;-0.994;2022-11-18T14:41:53;99218.10;;;10.13;100.00
62948;BME280;51940;52.126;-0.994;2022-11-18T14:44:20;99227.80;;;10.11;100.00
62948;BME280;51940;52.126;-0.994;2022-11-18T14:46:52;99232.55;;;10.09;100.00
62948;BME280;51940;52.126;-0.994;2022-11-18T14:49:21;99236.09;;;10.05;100.00
62948;BME280;51940;52.126;-0.994;2022-11-18T14:51:49;99242.64;;;10.02;100.00
62948;BME280;51940;52.126;-0.994;2022-11-18T14:54:16;99243.65;;;9.99;100.00
62948;BME280;51940;52.126;-0.994;2022-11-18T14:56:43;99251.22;;;9.97;100.00
62948;BME280;51940;52.126;-0.994;2022-11-18T14:59:14;99254.89;;;9.94;100.00